Date,TemperatureHighF,TemperatureAvgF,TemperatureLowF,DewpointHighF,DewpointAvgF,DewpointLowF,HumidityHigh,HumidityAvg,HumidityLow,PressureMaxIn,PressureMinIn,WindSpeedMaxMPH,WindSpeedAvgMPH,GustSpeedMaxMPH,PrecipitationSumIn
2013-4-1,35.4,30.3,26.7,26.8,16.2,0.0,71,56,46,30.45,30.09,13,2,13,0.00
2013-4-2,40.8,31.0,21.9,19.9,16.0,12.7,75,55,38,30.60,30.45,13,1,13,0.00
2013-4-3,46.7,33.3,22.2,23.2,16.6,11.5,67,51,37,30.79,30.60,9,0,9,0.00
2013-4-4,57.0,41.0,27.6,30.8,23.7,16.3,67,51,37,30.68,30.27,61,3,61,0.00
2013-4-5,49.2,38.4,30.9,28.7,22.0,14.7,72,53,35,30.59,30.33,7,0,7,0.00
2013-4-6,48.3,38.4,29.1,29.4,23.4,18.7,68,56,42,30.60,30.05,7,0,7,0.00
2013-4-7,51.6,44.4,37.5,44.6,34.1,28.5,79,68,48,30.42,29.88,18,4,18,0.00
2013-4-8,43.5,37.1,28.5,38.4,32.0,23.0,88,82,70,30.42,30.06,2,0,2,0.00
2013-4-9,40.8,39.1,37.2,37.6,35.8,33.3,89,88,86,30.47,30.27,5,0,5,0.00
2013-4-10,39.3,37.3,36.3,35.2,33.4,29.9,89,86,77,30.45,30.30,8,0,8,0.00
2013-4-11,37.0,33.5,32.1,30.1,29.3,28.5,88,84,73,30.43,30.11,8,0,8,0.00
2013-4-12,39.3,34.8,0.0,35.2,31.4,-2.7,89,87,83,30.14,29.93,9,1,9,0.00
2013-4-13,40.2,35.7,33.6,34.2,29.5,26.2,87,78,66,30.33,30.10,19,5,19,0.00
2013-4-14,44.9,36.5,0.0,33.2,29.0,-7.1,86,75,60,30.47,30.29,5,0,6,0.00
2013-4-15,64.5,49.1,34.3,52.8,41.9,29.3,87,77,64,30.29,30.18,9,1,9,0.00
2013-4-16,59.0,49.3,41.5,46.6,37.7,28.6,87,66,45,30.65,30.25,13,2,13,0.00
2013-4-17,48.2,40.7,36.1,36.3,32.8,28.7,87,74,59,30.75,30.43,5,0,5,0.00
2013-4-18,58.8,49.2,39.9,56.2,46.2,36.3,91,89,87,30.43,29.81,9,0,9,0.00
2013-4-19,58.8,42.3,34.1,54.9,35.2,24.8,90,76,65,30.07,29.71,21,9,21,0.00
2013-4-20,38.4,33.5,28.4,26.1,21.2,18.0,72,61,49,30.81,30.06,13,3,13,0.00
2013-4-21,53.4,37.3,0.0,30.9,23.8,-14.3,75,59,41,30.97,30.79,5,0,5,0.00
2013-4-22,65.6,47.7,31.8,39.7,30.9,23.1,72,54,33,30.81,30.53,5,0,5,0.00
2013-4-23,58.8,48.2,38.3,49.2,39.3,29.8,86,72,58,30.54,30.17,6,0,6,0.00
2013-4-24,47.8,39.3,33.6,33.8,30.2,25.3,85,71,47,30.45,30.23,10,1,10,0.00
2013-4-25,52.5,41.8,35.2,39.8,30.0,25.5,83,64,46,30.68,30.38,19,2,19,0.00
2013-4-26,62.0,47.3,30.3,38.6,32.6,24.0,81,59,41,30.78,30.62,10,1,10,0.00
2013-4-27,74.4,57.6,43.1,49.2,39.9,0.0,73,54,37,30.66,30.47,7,1,7,0.00
2013-4-28,71.9,55.3,44.9,51.0,43.0,34.2,79,64,46,30.47,30.23,6,0,6,0.00
2013-4-29,75.9,62.1,52.3,56.7,50.8,47.3,84,68,49,30.29,30.21,6,0,6,0.00
2013-4-30,74.4,62.8,55.0,59.5,53.4,48.5,89,72,58,30.39,30.25,10,0,10,0.00